createdAt,value
2023-05-16T00:02:00.415Z,97900.41
2023-05-16T00:04:27.547Z,97917.00
2023-05-16T00:06:55.169Z,97913.09
2023-05-16T00:09:21.896Z,97912.63
2023-05-16T00:11:48.730Z,97902.59
2023-05-16T00:14:15.454Z,97921.41
2023-05-16T00:16:42.355Z,97928.66
2023-05-16T00:19:10.412Z,97916.78
2023-05-16T00:21:37.363Z,97924.47
2023-05-16T00:24:04.864Z,97914.84
2023-05-16T00:26:31.483Z,97894.97
2023-05-16T00:28:58.162Z,97894.03
2023-05-16T00:31:25.194Z,97900.22
2023-05-16T00:33:51.986Z,97900.78
2023-05-16T00:36:18.801Z,97882.31
2023-05-16T00:38:45.811Z,97886.97
2023-05-16T00:41:12.508Z,97898.69
2023-05-16T00:43:39.955Z,97882.13
2023-05-16T00:46:06.636Z,97886.53
2023-05-16T00:48:34.005Z,97893.19
2023-05-16T00:51:02.003Z,97886.34
2023-05-16T00:53:28.873Z,97882.94
2023-05-16T00:55:57.239Z,97890.28
2023-05-16T00:58:27.169Z,97892.00
2023-05-16T01:00:53.975Z,97879.47
2023-05-16T01:03:21.140Z,97887.94
2023-05-16T01:05:49.994Z,97887.78
2023-05-16T01:08:16.683Z,97869.34
2023-05-16T01:11:21.628Z,97896.31
2023-05-16T01:13:51.172Z,97893.97
2023-05-16T01:16:34.522Z,97868.72
2023-05-16T01:19:23.234Z,97897.75
2023-05-16T01:21:58.214Z,97865.03
2023-05-16T01:24:43.562Z,97871.06
2023-05-16T01:27:12.106Z,97872.13
2023-05-16T01:29:38.753Z,97881.88
2023-05-16T01:32:05.808Z,97878.47
2023-05-16T01:34:33.906Z,97864.25
2023-05-16T01:37:19.864Z,97885.53
2023-05-16T01:39:55.715Z,97870.31
2023-05-16T01:42:26.810Z,97864.59
2023-05-16T01:45:06.447Z,97860.97
2023-05-16T01:47:35.812Z,97855.19
2023-05-16T01:50:15.905Z,97873.16
2023-05-16T01:52:53.409Z,97877.97
2023-05-16T01:55:47.387Z,97861.63
2023-05-16T01:58:15.700Z,97862.94
2023-05-16T02:00:42.880Z,97874.97
2023-05-16T02:03:09.860Z,97855.16
2023-05-16T02:05:36.664Z,97877.09
2023-05-16T02:08:04.031Z,97861.75
2023-05-16T02:10:31.604Z,97862.09
2023-05-16T02:12:58.231Z,97867.38
2023-05-16T02:15:27.692Z,97855.94
2023-05-16T02:17:54.844Z,97866.56
2023-05-16T02:20:21.542Z,97872.84
2023-05-16T02:22:50.170Z,97856.00
2023-05-16T02:25:16.882Z,97860.78
2023-05-16T02:27:43.668Z,97848.25
2023-05-16T02:30:13.635Z,97860.50
2023-05-16T02:32:41.212Z,97884.44
2023-05-16T02:35:08.417Z,97871.38
2023-05-16T02:37:35.300Z,97858.63
2023-05-16T02:40:09.165Z,97851.84
2023-05-16T02:42:36.044Z,97868.03
2023-05-16T02:45:06.011Z,97851.88
2023-05-16T02:47:35.650Z,97874.88
2023-05-16T02:50:03.759Z,97866.09
2023-05-16T02:52:30.450Z,97863.63
2023-05-16T02:55:16.091Z,97872.38
2023-05-16T02:57:43.916Z,97882.47
2023-05-16T03:00:11.596Z,97860.00
2023-05-16T03:02:38.263Z,97851.84
2023-05-16T03:05:06.394Z,97873.53
2023-05-16T03:07:35.705Z,97863.78
2023-05-16T03:10:04.593Z,97870.41
2023-05-16T03:12:31.379Z,97876.69
2023-05-16T03:14:57.955Z,97884.84
2023-05-16T03:17:24.813Z,97875.41
2023-05-16T03:19:51.466Z,97878.41
2023-05-16T03:22:18.094Z,97874.75
2023-05-16T03:24:45.084Z,97876.44
2023-05-16T03:27:12.149Z,97870.00
2023-05-16T03:29:38.751Z,97882.56
2023-05-16T03:32:09.852Z,97866.19
2023-05-16T03:34:36.777Z,97885.38
2023-05-16T03:37:03.623Z,97900.44
2023-05-16T03:39:30.271Z,97875.78
2023-05-16T03:41:57.442Z,97868.66
2023-05-16T03:44:24.315Z,97870.34
2023-05-16T03:46:51.600Z,97877.75
2023-05-16T03:49:18.551Z,97892.28
2023-05-16T03:51:45.430Z,97886.00
2023-05-16T03:54:12.020Z,97873.91
2023-05-16T03:56:38.591Z,97900.72
2023-05-16T03:59:07.303Z,97890.50
2023-05-16T04:01:33.967Z,97897.75
2023-05-16T04:04:00.592Z,97893.13
2023-05-16T04:06:27.194Z,97885.00
2023-05-16T04:08:53.822Z,97907.97
2023-05-16T04:11:21.494Z,97888.63
2023-05-16T04:13:48.252Z,97878.06
2023-05-16T04:16:14.862Z,97876.22
2023-05-16T04:18:41.541Z,97894.56
2023-05-16T04:21:15.170Z,97876.69
2023-05-16T04:23:42.015Z,97925.34
2023-05-16T04:26:08.736Z,97912.94
2023-05-16T04:28:36.081Z,97910.75
2023-05-16T04:31:03.281Z,97897.88
2023-05-16T04:33:30.163Z,97908.44
2023-05-16T04:35:58.627Z,97905.09
2023-05-16T04:38:25.876Z,97897.81
2023-05-16T04:40:53.062Z,97894.00
2023-05-16T04:43:20.183Z,97887.38
2023-05-16T04:45:47.299Z,97910.25
2023-05-16T04:48:14.045Z,97893.84
2023-05-16T04:50:41.137Z,97915.53
2023-05-16T04:53:10.570Z,97900.16
2023-05-16T04:55:37.294Z,97917.00
2023-05-16T04:58:04.141Z,97921.97
2023-05-16T05:00:30.795Z,97903.81
2023-05-16T05:02:57.619Z,97905.75
2023-05-16T05:05:24.385Z,97930.88
2023-05-16T05:07:51.580Z,97926.09
2023-05-16T05:10:18.668Z,97907.38
2023-05-16T05:12:45.392Z,97923.41
2023-05-16T05:15:12.327Z,97916.59
2023-05-16T05:17:39.331Z,97924.69
2023-05-16T05:20:13.814Z,97934.31
2023-05-16T05:22:40.900Z,97934.97
2023-05-16T05:27:48.893Z,97937.47
2023-05-16T05:30:16.337Z,97923.69
2023-05-16T05:32:43.018Z,97924.56
2023-05-16T05:35:09.666Z,97927.56
2023-05-16T05:37:36.306Z,97931.69
2023-05-16T05:40:03.388Z,97937.59
2023-05-16T05:42:30.041Z,97924.69
2023-05-16T05:44:56.733Z,97942.09
2023-05-16T05:47:23.470Z,97929.22
2023-05-16T05:49:50.755Z,97946.44
2023-05-16T05:52:17.614Z,97938.06
2023-05-16T05:54:44.346Z,97934.91
2023-05-16T05:57:14.141Z,97939.31
2023-05-16T05:59:40.850Z,97937.19
2023-05-16T06:02:08.492Z,97955.91
2023-05-16T06:04:35.247Z,97935.50
2023-05-16T06:07:05.035Z,97945.47
2023-05-16T06:09:32.104Z,97939.34
2023-05-16T06:11:58.924Z,97947.50
2023-05-16T06:24:17.260Z,97948.38
2023-05-16T06:35:07.654Z,97976.88
2023-05-16T06:37:34.895Z,97963.59
2023-05-16T06:40:01.666Z,97953.00
2023-05-16T06:42:28.415Z,97949.56
2023-05-16T06:44:57.885Z,97965.22
2023-05-16T06:47:25.297Z,97961.53
2023-05-16T06:49:56.106Z,97955.56
2023-05-16T06:52:23.135Z,97975.91
2023-05-16T06:55:13.013Z,97990.50
2023-05-16T06:57:45.073Z,97960.19
2023-05-16T07:00:21.306Z,97952.56
2023-05-16T07:02:48.058Z,97980.41
2023-05-16T07:05:14.891Z,97957.41
2023-05-16T07:07:41.790Z,97975.25
2023-05-16T07:10:08.874Z,97961.34
2023-05-16T07:12:39.781Z,97992.44
2023-05-16T07:15:07.072Z,97973.44
2023-05-16T07:17:33.924Z,97984.91
2023-05-16T07:20:02.255Z,97980.34
2023-05-16T07:22:31.215Z,97983.00
2023-05-16T07:25:01.211Z,97990.97
2023-05-16T07:27:28.651Z,97985.03
2023-05-16T07:29:55.577Z,97973.06
2023-05-16T07:32:22.360Z,97991.75
2023-05-16T07:34:49.249Z,97991.88
2023-05-16T07:37:16.527Z,97982.78
2023-05-16T07:39:43.712Z,97973.91
2023-05-16T07:42:13.180Z,97993.75
2023-05-16T07:44:40.190Z,98004.00
2023-05-16T07:47:08.758Z,97981.84
2023-05-16T07:49:36.565Z,97978.53
2023-05-16T07:52:03.626Z,98003.75
2023-05-16T07:54:35.346Z,97994.97
2023-05-16T07:57:02.567Z,97987.75
2023-05-16T07:59:29.532Z,98003.34
2023-05-16T08:01:56.775Z,98008.81
2023-05-16T08:04:23.562Z,97992.81
2023-05-16T08:06:50.319Z,98010.59
2023-05-16T08:09:17.054Z,98002.94
2023-05-16T08:11:45.878Z,98005.28
2023-05-16T08:14:15.965Z,98000.75
2023-05-16T08:16:44.716Z,97992.41
2023-05-16T08:19:14.784Z,98009.41
2023-05-16T08:21:44.037Z,97987.06
2023-05-16T08:24:11.804Z,97989.03
2023-05-16T08:26:38.773Z,98020.75
2023-05-16T08:29:05.544Z,97995.94
2023-05-16T08:31:34.739Z,98014.00
2023-05-16T08:34:04.897Z,98033.44
2023-05-16T08:36:31.804Z,98010.38
2023-05-16T08:38:58.465Z,98021.66
2023-05-16T08:41:26.069Z,98043.19
2023-05-16T08:43:53.139Z,98042.59
2023-05-16T08:46:23.142Z,98038.41
2023-05-16T08:48:53.119Z,98039.81
2023-05-16T08:51:25.300Z,98037.88
2023-05-16T08:54:01.532Z,98056.13
2023-05-16T08:56:28.513Z,98049.78
2023-05-16T08:58:56.408Z,98050.00
2023-05-16T09:01:23.515Z,98025.28
2023-05-16T09:03:51.305Z,98041.03
2023-05-16T09:06:18.134Z,98052.88
2023-05-16T09:08:48.520Z,98039.69
2023-05-16T09:11:15.259Z,98062.84
2023-05-16T09:13:44.946Z,98039.56
2023-05-16T09:16:19.936Z,98038.78
2023-05-16T09:18:57.983Z,98063.06
2023-05-16T09:21:32.980Z,98068.28
2023-05-16T09:24:05.975Z,98047.94
2023-05-16T09:26:38.611Z,98061.91
2023-05-16T09:29:17.463Z,98053.47
2023-05-16T09:31:44.264Z,98042.56
2023-05-16T09:34:12.945Z,98055.00
2023-05-16T09:36:42.154Z,98043.75
2023-05-16T09:39:17.964Z,98060.53
2023-05-16T09:41:44.978Z,98054.09
2023-05-16T09:44:14.897Z,98045.59
2023-05-16T09:46:45.094Z,98047.28
2023-05-16T10:52:18.462Z,98077.91
2023-05-16T10:54:52.817Z,98090.81
2023-05-16T10:57:22.971Z,98073.25
2023-05-16T10:59:53.614Z,98103.09
2023-05-16T11:02:39.100Z,98074.78
2023-05-16T11:05:08.727Z,98096.28
2023-05-16T11:07:44.066Z,98083.53
2023-05-16T11:10:16.117Z,98098.44
2023-05-16T11:39:36.393Z,98133.38
2023-05-16T11:56:05.825Z,98100.50
2023-05-16T11:58:33.312Z,98124.34
2023-05-16T12:01:03.490Z,98106.63
2023-05-16T12:03:39.424Z,98113.44
2023-05-16T12:15:01.175Z,98120.56
2023-05-16T12:26:08.827Z,98132.16
2023-05-16T12:28:54.320Z,98108.81
2023-05-16T12:31:31.047Z,98114.94
2023-05-16T12:33:59.771Z,98130.31
2023-05-16T12:36:26.694Z,98122.03
2023-05-16T12:38:53.784Z,98140.53
2023-05-16T12:41:23.780Z,98131.59
2023-05-16T12:43:50.612Z,98137.38
2023-05-16T12:46:19.881Z,98137.88
2023-05-16T12:48:48.137Z,98121.19
2023-05-16T12:51:17.369Z,98146.84
2023-05-16T12:54:01.412Z,98147.16
2023-05-16T12:56:36.171Z,98141.03
2023-05-16T12:59:03.607Z,98145.97
2023-05-16T13:01:30.710Z,98139.66
2023-05-16T13:03:57.870Z,98127.97
2023-05-16T13:06:24.743Z,98135.53
2023-05-16T13:08:53.633Z,98150.63
2023-05-16T13:11:21.021Z,98133.03
2023-05-16T13:13:47.944Z,98128.06
2023-05-16T13:16:15.582Z,98145.78
2023-05-16T13:18:44.891Z,98117.94
2023-05-16T13:21:14.288Z,98109.13
2023-05-16T13:23:41.034Z,98125.34
2023-05-16T13:26:10.575Z,98131.41
2023-05-16T13:28:37.642Z,98136.63
2023-05-16T13:31:04.802Z,98130.97
2023-05-16T13:33:33.788Z,98133.75
2023-05-16T13:36:00.541Z,98137.31
2023-05-16T13:38:27.279Z,98140.66
2023-05-16T13:40:56.212Z,98116.22
2023-05-16T13:43:22.885Z,98135.09
2023-05-16T13:45:50.070Z,98108.81
2023-05-16T13:48:17.243Z,98112.34
2023-05-16T13:50:44.761Z,98113.81
2023-05-16T13:53:14.400Z,98112.28
2023-05-16T13:55:41.181Z,98133.94
2023-05-16T13:58:07.897Z,98120.88
2023-05-16T14:00:44.340Z,98108.53
2023-05-16T14:03:12.444Z,98123.72
2023-05-16T14:05:39.523Z,98111.34
2023-05-16T14:08:06.817Z,98117.94
2023-05-16T14:10:34.123Z,98105.31
2023-05-16T14:13:00.774Z,98113.81
2023-05-16T14:15:28.187Z,98085.06
2023-05-16T14:17:55.273Z,98078.78
2023-05-16T14:20:25.681Z,98079.88
2023-05-16T14:30:49.240Z,98094.16
2023-05-16T14:33:19.233Z,98088.69
2023-05-16T14:35:46.453Z,98070.53
2023-05-16T14:38:14.627Z,98049.50
2023-05-16T14:40:41.272Z,98085.69
2023-05-16T14:43:08.983Z,98071.41
2023-05-16T14:45:35.859Z,98074.16
2023-05-16T14:48:37.830Z,98061.75
2023-05-16T14:51:05.343Z,98056.31
2023-05-16T14:53:32.128Z,98072.75
2023-05-16T14:55:59.706Z,98080.16
2023-05-16T14:58:27.332Z,98066.56
2023-05-16T15:00:54.771Z,98073.75
2023-05-16T15:03:21.491Z,98068.78
2023-05-16T15:05:48.465Z,98067.69
2023-05-16T15:08:28.388Z,98051.00
2023-05-16T15:10:55.798Z,98054.34
2023-05-16T15:13:27.556Z,98062.34
2023-05-16T15:15:54.414Z,98060.44
2023-05-16T15:18:24.370Z,98071.94
2023-05-16T15:20:53.477Z,98058.00
2023-05-16T15:23:20.338Z,98061.75
2023-05-16T15:25:47.165Z,98075.06
2023-05-16T15:28:13.985Z,98061.41
2023-05-16T15:30:40.994Z,98071.25
2023-05-16T15:33:07.811Z,98072.53
2023-05-16T15:35:34.640Z,98076.59
2023-05-16T15:38:01.715Z,98056.69
2023-05-16T15:40:28.958Z,98054.84
2023-05-16T15:42:56.256Z,98064.75
2023-05-16T15:48:04.370Z,98069.97
2023-05-16T15:50:31.258Z,98063.44
2023-05-16T15:52:58.409Z,98071.22
2023-05-16T15:55:25.579Z,98076.91
2023-05-16T15:57:57.408Z,98083.91
2023-05-16T16:00:25.080Z,98061.31
2023-05-16T16:02:52.207Z,98091.59
2023-05-16T16:05:19.718Z,98080.50
2023-05-16T16:07:49.592Z,98100.25
2023-05-16T16:10:19.456Z,98065.47
2023-05-16T16:13:02.030Z,98060.56
2023-05-16T16:15:32.046Z,98070.19
2023-05-16T16:18:00.963Z,98081.59
2023-05-16T16:20:28.297Z,98085.91
2023-05-16T16:22:54.996Z,98063.47
2023-05-16T16:25:21.758Z,98085.78
2023-05-16T16:27:48.679Z,98089.22
2023-05-16T16:30:18.573Z,98090.66
2023-05-16T16:32:47.531Z,98074.09
2023-05-16T16:35:14.928Z,98080.41
2023-05-16T16:53:36.481Z,98092.78
2023-05-16T16:56:06.979Z,98079.22
2023-05-16T16:58:34.909Z,98099.28
2023-05-16T17:01:01.956Z,98090.66
2023-05-16T17:03:28.790Z,98077.50
2023-05-16T17:05:55.524Z,98082.84
2023-05-16T17:08:28.931Z,98077.78
2023-05-16T17:10:55.764Z,98085.31
2023-05-16T17:13:22.592Z,98088.75
2023-05-16T17:15:49.335Z,98079.25
2023-05-16T17:18:18.229Z,98094.78
2023-05-16T17:20:44.917Z,98100.19
2023-05-16T17:23:11.576Z,98081.97
2023-05-16T17:25:41.488Z,98098.03
2023-05-16T17:28:08.260Z,98084.72
2023-05-16T17:30:41.456Z,98086.72
2023-05-16T17:33:14.143Z,98116.84
2023-05-16T17:35:42.145Z,98091.63
2023-05-16T17:38:12.957Z,98090.53
2023-05-16T17:40:41.976Z,98107.81
2023-05-16T17:43:10.088Z,98103.25
2023-05-16T17:45:41.380Z,98128.47
2023-05-16T17:51:05.623Z,98126.09
2023-05-16T17:56:34.223Z,98089.63
2023-05-16T17:59:04.058Z,98102.38
2023-05-16T18:04:32.533Z,98122.72
2023-05-16T19:43:27.457Z,98205.84
2023-05-16T19:46:06.399Z,98237.00
2023-05-16T19:48:33.169Z,98234.06
2023-05-16T19:51:00.044Z,98230.72
2023-05-16T19:53:26.785Z,98226.25
2023-05-16T19:55:53.566Z,98225.75
2023-05-16T19:58:20.362Z,98236.03
2023-05-16T20:00:47.262Z,98244.16
2023-05-16T20:03:14.172Z,98250.28
2023-05-16T20:05:43.824Z,98233.88
2023-05-16T20:08:12.293Z,98249.25
2023-05-16T20:10:39.997Z,98263.84
2023-05-16T20:13:06.630Z,98256.22
2023-05-16T20:15:33.497Z,98244.91
2023-05-16T20:18:00.840Z,98285.03
2023-05-16T20:20:45.834Z,98266.50
2023-05-16T20:23:29.905Z,98250.53
2023-05-16T20:25:56.863Z,98249.72
2023-05-16T20:28:23.817Z,98269.63
2023-05-16T20:30:51.433Z,98272.75
2023-05-16T20:33:20.107Z,98284.50
2023-05-16T20:35:51.084Z,98268.75
2023-05-16T20:38:17.868Z,98299.09
2023-05-16T20:40:49.900Z,98297.59
2023-05-16T20:43:17.184Z,98285.81
2023-05-16T20:45:44.979Z,98277.84
2023-05-16T20:48:12.644Z,98274.00
2023-05-16T20:50:39.930Z,98303.34
2023-05-16T20:53:07.136Z,98303.00
2023-05-16T20:55:42.061Z,98310.59
2023-05-16T20:58:10.635Z,98281.16
2023-05-16T21:00:37.995Z,98291.75
2023-05-16T21:03:08.310Z,98297.38
2023-05-16T21:05:36.653Z,98320.41
2023-05-16T21:08:03.539Z,98316.50
2023-05-16T21:13:12.553Z,98286.00
2023-05-16T21:15:40.039Z,98292.47
2023-05-16T21:18:08.303Z,98315.22
2023-05-16T21:20:35.549Z,98315.25
2023-05-16T21:23:03.832Z,98327.03
2023-05-16T21:25:43.708Z,98293.63
2023-05-16T21:28:11.183Z,98310.22
2023-05-16T21:30:38.293Z,98311.53
2023-05-16T21:33:06.935Z,98331.59
2023-05-16T21:35:50.377Z,98333.13
2023-05-16T21:38:17.561Z,98318.94
2023-05-16T21:41:06.534Z,98310.75
2023-05-16T21:43:34.298Z,98327.13
2023-05-16T21:46:05.719Z,98335.84
2023-05-16T21:48:34.398Z,98320.81
2023-05-16T21:51:03.299Z,98320.00
2023-05-16T21:53:35.137Z,98324.56
2023-05-16T21:56:02.752Z,98304.38
2023-05-16T21:58:29.597Z,98296.94
2023-05-16T22:00:58.741Z,98324.13
2023-05-16T22:03:25.986Z,98307.53
2023-05-16T22:05:54.993Z,98343.03
2023-05-16T22:08:22.852Z,98332.38
2023-05-16T22:10:52.720Z,98318.84
2023-05-16T22:13:37.611Z,98341.88
2023-05-16T22:16:07.993Z,98322.78
2023-05-16T22:18:35.685Z,98331.56
2023-05-16T22:21:02.621Z,98333.34
2023-05-16T22:23:29.253Z,98333.03
2023-05-16T22:25:56.091Z,98347.09
2023-05-16T22:28:26.288Z,98358.66
2023-05-16T22:30:56.134Z,98337.75
2023-05-16T22:33:26.267Z,98323.09
2023-05-16T22:35:56.321Z,98346.50
2023-05-16T22:38:24.204Z,98343.38
2023-05-16T22:40:51.293Z,98341.38
2023-05-16T22:43:20.155Z,98363.69
2023-05-16T22:45:46.909Z,98339.88
2023-05-16T22:48:13.694Z,98365.50
2023-05-16T22:50:40.557Z,98348.03
2023-05-16T22:53:07.129Z,98351.53
2023-05-16T22:55:35.019Z,98365.59
2023-05-16T22:58:01.761Z,98356.63
2023-05-16T23:00:28.443Z,98365.06
2023-05-16T23:02:55.248Z,98330.38
2023-05-16T23:05:22.011Z,98358.50
2023-05-16T23:07:48.692Z,98336.19
2023-05-16T23:10:15.469Z,98355.66
2023-05-16T23:12:42.155Z,98364.28
2023-05-16T23:15:10.400Z,98348.44
2023-05-16T23:17:38.548Z,98352.53
2023-05-16T23:20:07.029Z,98356.91
2023-05-16T23:22:33.972Z,98364.00
2023-05-16T23:25:00.715Z,98372.53
2023-05-16T23:27:27.428Z,98335.91
2023-05-16T23:29:56.095Z,98339.00
2023-05-16T23:32:22.815Z,98340.03
2023-05-16T23:34:49.689Z,98346.75
2023-05-16T23:37:16.598Z,98322.13
2023-05-16T23:39:43.235Z,98348.59
2023-05-16T23:42:09.809Z,98348.84
2023-05-16T23:44:36.543Z,98350.09
2023-05-16T23:47:03.412Z,98347.03
2023-05-16T23:49:30.103Z,98344.59
2023-05-16T23:51:59.903Z,98330.06
2023-05-16T23:54:29.741Z,98329.94
2023-05-16T23:56:57.017Z,98344.34
2023-05-16T23:59:23.668Z,98342.91
